Terminal Aerodrome Forecast
Issued by NWS St Louis, MO

Home | Current Version | Previous Version | Text Only | Print | Product List | Glossary On
Versions: 1 2 3 4 5 6 7 8 9 10 11 12 13 14 15 16 17 18 19 20 21
000
FTUS43 KLSX 160520
TAFCOU
TAF
KCOU 160520Z 1606/1706 13006KT P6SM SCT050 BKN120
     FM161000 14007KT 5SM BR VCTS BKN050CB
     FM161500 17011KT P6SM BKN035
     FM162300 17010KT P6SM VCTS SCT045CB BKN120=

USA.gov is the U.S. government's official web portal to all federal, state and local government web resources and services.